Time;durP1;ratioP1;P1;durP2;ratioP2;P2;SDS_P1;SDS_P2;PMS_P1;PMS_P2;Temp;Humidity;BMP_temperature;BMP_pressure;BME280_temperature;BME280_humidity;BME280_pressure;Samples;Min_cycle;Max_cycle;Signal;HPM_P1;HPM_P2
2021/01/21 00:01:01;;;;;;;6.15;2.00;;;11.20;72.10;;;;;;4994190;28;20034;-75
2021/01/21 00:03:27;;;;;;;3.13;1.60;;;11.20;71.30;;;;;;4996879;28;20058;-75
2021/01/21 00:05:52;;;;;;;5.20;1.58;;;11.30;72.10;;;;;;4995971;28;20034;-75
2021/01/21 00:08:18;;;;;;;2.95;1.75;;;11.20;71.80;;;;;;4997355;28;20391;-75
2021/01/21 00:10:43;;;;;;;5.38;1.92;;;11.20;72.80;;;;;;4997116;28;20080;-75
2021/01/21 00:13:09;;;;;;;4.03;1.70;;;11.20;72.20;;;;;;4996943;28;20034;-75
2021/01/21 00:15:34;;;;;;;5.72;1.80;;;11.20;72.00;;;;;;4996863;28;20105;-75
2021/01/21 00:18:00;;;;;;;3.92;1.80;;;11.20;71.50;;;;;;4996807;28;20027;-75
2021/01/21 00:20:26;;;;;;;6.18;2.00;;;11.30;71.20;;;;;;4996869;28;20072;-75
2021/01/21 00:22:52;;;;;;;3.30;2.00;;;11.30;70.80;;;;;;4996898;28;20022;-75
2021/01/21 00:25:17;;;;;;;7.25;2.00;;;11.40;70.20;;;;;;4996780;28;20411;-76
2021/01/21 00:27:43;;;;;;;4.50;1.75;;;11.40;69.70;;;;;;4996776;28;20039;-75
2021/01/21 00:30:11;;;;;;;5.85;1.80;;;11.40;69.00;;;;;;4996547;28;20039;-75
2021/01/21 00:32:36;;;;;;;3.75;1.67;;;11.50;68.90;;;;;;4996540;28;20076;-76
2021/01/21 00:35:02;;;;;;;5.15;1.70;;;11.50;68.30;;;;;;5012006;28;20020;-76
2021/01/21 00:37:28;;;;;;;4.93;1.50;;;11.50;68.30;;;;;;4996449;28;20038;-76
2021/01/21 00:39:54;;;;;;;2.75;1.48;;;11.60;68.10;;;;;;4996477;28;20112;-75
2021/01/21 00:42:19;;;;;;;4.60;1.90;;;11.70;66.90;;;;;;4996606;28;20134;-76
2021/01/21 00:44:45;;;;;;;3.78;1.65;;;11.70;67.10;;;;;;4996747;28;20451;-76
2021/01/21 00:47:10;;;;;;;2.70;1.30;;;11.70;66.90;;;;;;4996284;28;20034;-75
2021/01/21 00:49:36;;;;;;;4.65;1.90;;;11.70;66.80;;;;;;4996155;28;20046;-76
2021/01/21 00:52:01;;;;;;;5.57;1.73;;;11.70;66.90;;;;;;4996560;28;20104;-76
2021/01/21 00:54:27;;;;;;;3.08;1.48;;;11.80;66.90;;;;;;4996296;28;20173;-76
2021/01/21 00:56:53;;;;;;;4.43;1.67;;;11.80;66.80;;;;;;4996313;28;20057;-76
2021/01/21 00:59:18;;;;;;;3.80;1.25;;;11.90;66.10;;;;;;4996211;28;20061;-76
2021/01/21 01:01:44;;;;;;;3.53;1.50;;;11.90;66.40;;;;;;4996034;28;20113;-76
2021/01/21 01:04:09;;;;;;;3.80;1.38;;;11.80;67.90;;;;;;4996039;28;20030;-75
2021/01/21 01:06:35;;;;;;;6.22;1.92;;;11.70;69.90;;;;;;4996426;28;20062;-76
2021/01/21 01:09:00;;;;;;;6.68;1.70;;;11.50;72.60;;;;;;4995999;28;20498;-76
2021/01/21 01:11:26;;;;;;;4.78;1.50;;;11.40;73.40;;;;;;4995572;28;20077;-75
2021/01/21 01:13:51;;;;;;;7.07;1.83;;;11.30;74.00;;;;;;4995445;28;20110;-75
2021/01/21 01:16:17;;;;;;;5.82;1.45;;;11.20;74.60;;;;;;4994818;28;20468;-75
2021/01/21 01:18:43;;;;;;;4.25;1.52;;;11.20;73.60;;;;;;4978587;28;20034;-75
2021/01/21 01:21:08;;;;;;;3.55;1.70;;;11.20;73.90;;;;;;4994324;28;20499;-75
2021/01/21 01:23:34;;;;;;;4.80;1.63;;;11.20;74.10;;;;;;4995557;28;20026;-75
2021/01/21 01:25:59;;;;;;;3.47;1.40;;;11.20;73.90;;;;;;4995707;28;20033;-75
2021/01/21 01:28:25;;;;;;;4.32;1.67;;;11.20;74.40;;;;;;4995559;28;20038;-75
2021/01/21 01:30:50;;;;;;;3.90;1.35;;;11.20;74.50;;;;;;4994313;28;20045;-75
2021/01/21 01:33:16;;;;;;;4.55;1.33;;;11.20;74.60;;;;;;4995622;28;20437;-75
2021/01/21 01:35:42;;;;;;;6.60;1.65;;;11.20;74.40;;;;;;4995534;28;20034;-76
2021/01/21 01:38:07;;;;;;;3.28;1.90;;;11.20;74.50;;;;;;4995397;28;20109;-75
2021/01/21 01:40:33;;;;;;;4.43;1.38;;;11.20;75.00;;;;;;4995360;28;20076;-75
2021/01/21 01:42:58;;;;;;;4.50;1.77;;;11.20;74.60;;;;;;4995260;28;20388;-75
2021/01/21 01:45:24;;;;;;;2.63;1.65;;;11.20;75.10;;;;;;4993874;28;20026;-76
2021/01/21 01:47:50;;;;;;;2.97;1.52;;;11.20;75.00;;;;;;4995573;28;20026;-75
2021/01/21 01:50:15;;;;;;;5.82;1.70;;;11.30;74.60;;;;;;4994187;28;20173;-75
2021/01/21 01:52:41;;;;;;;4.63;1.48;;;11.30;74.20;;;;;;4995140;28;20031;-75
2021/01/21 01:55:16;;;;;;;3.63;1.50;;;11.30;74.10;;;;;;4994046;28;20109;-75
2021/01/21 01:57:41;;;;;;;4.03;1.60;;;11.40;74.10;;;;;;4995039;28;20027;-76
2021/01/21 02:00:08;;;;;;;3.85;1.58;;;11.40;74.30;;;;;;4995015;28;20030;-76
2021/01/21 02:02:34;;;;;;;2.92;1.70;;;11.40;74.80;;;;;;4995251;28;20468;-75
2021/01/21 02:05:03;;;;;;;3.85;1.70;;;11.40;74.80;;;;;;4995430;28;20041;-76
2021/01/21 02:07:29;;;;;;;4.05;1.60;;;11.40;74.80;;;;;;4994858;28;20061;-76
2021/01/21 02:09:55;;;;;;;4.07;1.85;;;11.40;75.10;;;;;;4994909;28;20031;-76
2021/01/21 02:12:30;;;;;;;4.10;1.85;;;11.40;76.00;;;;;;4993709;28;20066;-75
2021/01/21 02:15:02;;;;;;;3.83;1.77;;;11.20;78.50;;;;;;4994914;28;20130;-75
2021/01/21 02:17:50;;;;;;;3.95;1.58;;;11.10;79.90;;;;;;4995014;28;20037;-75
2021/01/21 02:20:31;;;;;;;3.10;1.85;;;10.90;81.10;;;;;;4977276;28;20042;-75
2021/01/21 02:23:09;;;;;;;3.65;1.77;;;10.70;82.30;;;;;;4993178;28;20383;-76
2021/01/21 02:25:50;;;;;;;7.18;1.85;;;10.70;82.90;;;;;;4994655;28;20085;-75
2021/01/21 02:28:34;;;;;;;5.72;2.03;;;10.70;82.80;;;;;;4993556;28;20109;-75
2021/01/21 02:31:04;;;;;;;7.97;2.20;;;10.60;84.20;;;;;;4977796;28;20022;-76
2021/01/21 02:34:03;;;;;;;4.50;1.77;;;10.60;83.80;;;;;;4977365;28;20022;-75
2021/01/21 02:36:43;;;;;;;4.10;1.60;;;10.60;83.60;;;;;;4993454;28;20041;-75
2021/01/21 02:39:10;;;;;;;4.88;1.67;;;10.60;84.80;;;;;;4976993;28;20033;-74
2021/01/21 02:41:36;;;;;;;2.85;1.40;;;10.70;83.20;;;;;;4994475;28;20023;-75
2021/01/21 02:56:32;;;;;;;4.38;1.10;;;10.10;89.80;;;;;;5067514;27;1466555;-87
2021/01/21 02:58:57;;;;;;;7.07;1.30;;;9.20;87.20;;;;;;5056896;28;20024;-78
2021/01/21 03:01:23;;;;;;;3.42;1.08;;;8.80;89.10;;;;;;5056529;28;20114;-78
2021/01/21 03:03:48;;;;;;;5.38;1.20;;;8.60;88.10;;;;;;5073084;28;20462;-78
2021/01/21 03:06:14;;;;;;;4.63;1.05;;;8.40;88.10;;;;;;5072888;28;20477;-76
2021/01/21 03:08:40;;;;;;;10.23;1.42;;;8.40;88.30;;;;;;5072762;28;20024;-77
2021/01/21 03:11:09;;;;;;;5.13;1.25;;;8.30;89.30;;;;;;5056305;28;20020;-78
2021/01/21 03:13:35;;;;;;;6.15;1.50;;;8.30;89.00;;;;;;5056817;28;20127;-80
2021/01/21 03:16:01;;;;;;;6.72;1.30;;;8.20;87.80;;;;;;5090619;28;20060;-79
2021/01/21 03:18:27;;;;;;;4.47;1.05;;;8.10;86.40;;;;;;5090769;28;20130;-80
2021/01/21 03:23:08;;;;;;;5.07;0.75;;;7.90;84.10;;;;;;5065775;27;1495602;-81
2021/01/21 03:25:33;;;;;;;8.67;1.10;;;7.90;83.60;;;;;;5072967;28;20476;-79
2021/01/21 03:27:59;;;;;;;5.55;0.95;;;7.90;84.00;;;;;;5073349;28;20077;-79
2021/01/21 03:30:25;;;;;;;8.10;1.15;;;7.90;84.00;;;;;;5090946;28;20024;-78
2021/01/21 03:32:50;;;;;;;5.38;1.10;;;7.80;84.80;;;;;;5073137;28;20161;-78
2021/01/21 03:35:16;;;;;;;10.82;1.55;;;7.80;85.80;;;;;;5072784;28;20067;-81
2021/01/21 03:37:41;;;;;;;10.55;1.40;;;7.80;85.00;;;;;;5090735;28;20032;-82
2021/01/21 03:40:08;;;;;;;6.03;1.30;;;7.80;84.90;;;;;;5090564;28;20024;-80
2021/01/21 03:42:33;;;;;;;9.77;1.38;;;7.70;85.20;;;;;;5072697;28;20045;-82
2021/01/21 03:44:59;;;;;;;9.93;1.25;;;7.70;85.00;;;;;;5091077;28;20154;-81
2021/01/21 03:47:24;;;;;;;10.00;1.40;;;7.60;83.40;;;;;;5055902;28;20028;-81
2021/01/21 03:49:50;;;;;;;11.63;1.88;;;7.60;82.20;;;;;;5055915;28;20035;-80
2021/01/21 03:52:15;;;;;;;7.93;1.25;;;7.60;83.50;;;;;;5090559;28;20067;-82
2021/01/21 03:54:41;;;;;;;11.73;2.13;;;7.60;81.00;;;;;;5090514;28;20429;-80
2021/01/21 03:57:07;;;;;;;9.80;1.63;;;7.60;79.70;;;;;;5072533;28;20025;-81
2021/01/21 03:59:32;;;;;;;11.30;1.73;;;7.60;80.80;;;;;;5072227;28;20056;-80
2021/01/21 04:01:58;;;;;;;11.87;1.80;;;7.60;81.00;;;;;;5072135;28;20032;-80
2021/01/21 04:04:23;;;;;;;11.68;2.10;;;7.70;81.10;;;;;;5072463;28;20115;-81
2021/01/21 04:06:49;;;;;;;15.30;2.47;;;7.70;80.90;;;;;;5072165;28;20112;-81
2021/01/21 04:09:14;;;;;;;12.73;1.90;;;7.70;80.90;;;;;;5072140;28;20350;-81
2021/01/21 04:11:40;;;;;;;13.57;2.20;;;7.80;78.70;;;;;;5090247;28;20039;-80
2021/01/21 04:14:06;;;;;;;18.27;2.40;;;7.80;79.80;;;;;;5055507;28;20020;-82
2021/01/21 04:16:31;;;;;;;14.90;2.35;;;7.80;77.70;;;;;;5090079;28;20067;-81
2021/01/21 04:18:57;;;;;;;17.10;3.15;;;7.90;77.90;;;;;;5090139;28;20086;-83
2021/01/21 04:21:22;;;;;;;16.95;2.65;;;7.90;76.70;;;;;;5089847;28;20031;-83
2021/01/21 04:23:48;;;;;;;21.15;3.08;;;7.90;77.00;;;;;;5089725;28;20392;-84
2021/01/21 04:26:14;;;;;;;19.48;2.55;;;7.90;76.30;;;;;;5089671;28;20032;-84
2021/01/21 04:28:39;;;;;;;15.13;2.67;;;7.90;74.70;;;;;;5055212;28;20087;-83
2021/01/21 04:31:06;;;;;;;16.23;2.63;;;7.90;73.80;;;;;;5071919;28;20086;-82
2021/01/21 04:33:32;;;;;;;14.68;3.10;;;7.90;73.20;;;;;;5064069;28;20033;-83
2021/01/21 04:35:57;;;;;;;16.08;2.55;;;7.70;72.30;;;;;;5058261;28;20415;-83
2021/01/21 04:38:23;;;;;;;14.45;2.30;;;7.70;72.80;;;;;;5042882;28;20039;-80
2021/01/21 04:40:48;;;;;;;13.57;2.00;;;7.80;72.10;;;;;;5058514;28;20036;-83
2021/01/21 04:43:14;;;;;;;12.63;2.40;;;7.70;71.70;;;;;;5058460;28;20479;-83
2021/01/21 04:45:39;;;;;;;19.35;2.70;;;7.60;70.40;;;;;;5076187;28;20033;-84
2021/01/21 04:48:06;;;;;;;16.10;2.55;;;7.60;70.90;;;;;;5076080;28;20030;-83
2021/01/21 04:50:32;;;;;;;13.45;2.55;;;7.60;69.70;;;;;;5041672;28;20032;-83
2021/01/21 04:52:57;;;;;;;14.32;1.98;;;7.60;68.20;;;;;;5041169;28;20111;-84
2021/01/21 04:55:30;;;;;;;12.13;2.00;;;7.60;68.90;;;;;;5024926;28;20025;-84
2021/01/21 04:58:14;;;;;;;11.63;2.03;;;7.50;68.10;;;;;;5042458;28;20017;-83
2021/01/21 05:00:39;;;;;;;14.07;2.17;;;7.60;68.40;;;;;;5075752;28;20486;-83
2021/01/21 05:03:05;;;;;;;18.77;2.87;;;7.50;68.00;;;;;;5057806;28;20041;-84
2021/01/21 05:05:30;;;;;;;12.57;2.77;;;7.50;68.40;;;;;;5041071;28;20024;-84
2021/01/21 05:07:56;;;;;;;16.70;2.50;;;7.50;68.30;;;;;;5024687;28;20102;-84
2021/01/21 05:10:21;;;;;;;26.47;2.80;;;7.40;69.90;;;;;;5024746;28;20028;-85
2021/01/21 05:12:47;;;;;;;13.63;2.17;;;7.40;69.40;;;;;;5057866;28;20039;-84
2021/01/21 05:15:13;;;;;;;11.23;1.90;;;7.40;68.90;;;;;;5041233;28;20025;-83
2021/01/21 05:17:38;;;;;;;12.07;2.30;;;7.40;70.50;;;;;;5040957;28;20525;-84
2021/01/21 05:20:04;;;;;;;16.03;2.30;;;7.30;70.30;;;;;;5057468;28;20029;-80
2021/01/21 05:22:30;;;;;;;19.73;2.67;;;7.30;69.70;;;;;;5040608;28;20049;-80
2021/01/21 05:24:56;;;;;;;13.27;2.45;;;7.30;69.60;;;;;;5057595;28;20489;-79
2021/01/21 05:27:21;;;;;;;21.37;2.63;;;7.30;69.90;;;;;;5075185;28;20037;-80
2021/01/21 05:29:48;;;;;;;16.53;2.37;;;7.30;71.10;;;;;;5075197;28;20115;-81
2021/01/21 05:32:14;;;;;;;15.60;2.53;;;7.30;69.70;;;;;;5075139;28;20505;-79
2021/01/21 05:34:40;;;;;;;17.40;2.03;;;7.20;69.30;;;;;;5040996;28;20031;-80
2021/01/21 05:37:09;;;;;;;19.23;2.60;;;7.20;70.10;;;;;;5057110;28;20028;-80
2021/01/21 05:39:36;;;;;;;18.67;2.63;;;7.10;70.40;;;;;;5074942;28;20465;-81
2021/01/21 05:42:03;;;;;;;15.67;2.30;;;7.10;70.50;;;;;;5074849;28;20428;-80
2021/01/21 05:46:36;;;;;;;21.70;2.43;;;7.10;69.50;;;;;;5011253;28;20377;-80
2021/01/21 05:49:04;;;;;;;13.60;2.40;;;7.00;69.20;;;;;;5011224;28;20442;-80
2021/01/21 05:51:30;;;;;;;16.40;2.90;;;7.00;70.00;;;;;;5026517;28;20034;-80
2021/01/21 05:53:56;;;;;;;18.80;2.27;;;7.00;70.10;;;;;;5026187;28;20026;-82
2021/01/21 05:56:22;;;;;;;26.70;2.17;;;7.10;69.80;;;;;;4993494;28;20030;-81
2021/01/21 05:58:49;;;;;;;17.70;2.53;;;7.10;69.80;;;;;;5009825;28;20029;-82
2021/01/21 06:01:15;;;;;;;16.50;2.63;;;7.10;69.80;;;;;;5011321;28;20026;-81
2021/01/21 06:03:41;;;;;;;16.77;3.00;;;7.00;69.60;;;;;;5010728;28;20482;-81
2021/01/21 06:06:07;;;;;;;11.43;2.57;;;7.10;69.30;;;;;;4993328;28;20084;-79
2021/01/21 06:08:39;;;;;;;14.83;3.10;;;7.00;69.50;;;;;;5026571;28;20053;-80
2021/01/21 06:11:08;;;;;;;19.93;2.70;;;7.00;70.40;;;;;;5010007;28;20450;-79
2021/01/21 06:13:43;;;;;;;16.70;2.90;;;7.00;69.50;;;;;;4993511;28;20463;-78
2021/01/21 06:16:09;;;;;;;26.87;4.03;;;7.00;69.60;;;;;;5025845;28;20042;-79
2021/01/21 06:18:35;;;;;;;20.30;2.53;;;6.90;70.30;;;;;;5009238;28;20095;-80
2021/01/21 06:21:04;;;;;;;18.40;2.80;;;6.90;70.90;;;;;;5025827;28;20027;-80
2021/01/21 06:23:33;;;;;;;21.67;2.87;;;6.90;71.70;;;;;;5009248;28;20026;-80
2021/01/21 06:25:59;;;;;;;15.83;2.70;;;6.90;71.50;;;;;;5025688;28;20026;-79
2021/01/21 06:28:25;;;;;;;20.27;3.10;;;6.90;71.70;;;;;;5009423;28;20033;-80
2021/01/21 06:30:52;;;;;;;20.97;3.70;;;6.80;72.50;;;;;;4991768;28;20370;-80
2021/01/21 06:33:22;;;;;;;20.93;2.67;;;6.70;72.60;;;;;;5006956;28;20022;-82
2021/01/21 06:35:51;;;;;;;19.30;2.67;;;6.80;73.20;;;;;;5007783;28;20112;-81
2021/01/21 06:38:18;;;;;;;17.43;3.47;;;6.80;73.00;;;;;;5008734;28;20530;-81
2021/01/21 06:40:49;;;;;;;15.67;2.50;;;6.70;73.40;;;;;;5007877;28;20030;-83
2021/01/21 06:43:17;;;;;;;22.63;2.70;;;6.70;74.20;;;;;;5008820;28;20023;-81
2021/01/21 06:45:44;;;;;;;17.63;2.67;;;6.70;74.40;;;;;;5004972;28;20175;-79
2021/01/21 06:48:10;;;;;;;13.80;2.37;;;6.70;74.50;;;;;;5029771;28;20021;-81
2021/01/21 06:50:36;;;;;;;24.53;2.50;;;6.60;74.60;;;;;;5029344;28;20030;-82
2021/01/21 06:53:03;;;;;;;19.07;3.20;;;6.60;75.50;;;;;;5028192;28;20022;-82
2021/01/21 06:55:29;;;;;;;23.17;3.20;;;6.60;75.10;;;;;;5028317;28;20036;-81
2021/01/21 06:57:54;;;;;;;13.30;2.30;;;6.50;75.70;;;;;;5015434;28;20391;-81
2021/01/21 07:00:43;;;;;;;12.67;2.30;;;6.50;75.60;;;;;;5014908;28;20037;-81
2021/01/21 07:03:29;;;;;;;19.53;2.93;;;6.50;75.80;;;;;;4998129;28;20791;-82
2021/01/21 07:42:14;;;;;;;9.13;2.20;;;15.30;75.30;;;;;;5111638;27;20329;-48
2021/01/21 07:45:19;;;;;;;16.95;2.20;;;17.00;77.10;;;;;;5107986;27;778934;-60
2021/01/21 07:50:17;;;;;;;16.38;2.92;;;19.20;61.10;;;;;;5110662;27;20307;-75
2021/01/21 07:52:43;;;;;;;13.65;3.35;;;17.20;45.80;;;;;;5110183;27;20103;-75
2021/01/21 07:55:09;;;;;;;16.88;3.45;;;13.00;54.00;;;;;;5097414;28;20055;-76
2021/01/21 07:57:35;;;;;;;13.25;3.10;;;10.20;62.30;;;;;;5091454;28;20024;-74
2021/01/21 08:00:03;;;;;;;17.35;3.00;;;8.50;69.40;;;;;;5105765;28;20028;-74
2021/01/21 08:02:47;;;;;;;15.65;2.85;;;7.50;74.70;;;;;;5108150;28;20365;-73
2021/01/21 08:05:13;;;;;;;13.87;2.57;;;7.00;77.50;;;;;;5110124;28;20020;-73
2021/01/21 08:07:52;;;;;;;16.20;2.77;;;6.70;79.00;;;;;;5109604;28;20439;-80
2021/01/21 08:10:25;;;;;;;14.60;2.27;;;6.70;79.80;;;;;;5088848;28;20020;-74
2021/01/21 08:12:57;;;;;;;20.57;3.00;;;6.60;79.70;;;;;;5100361;28;20054;-73
2021/01/21 08:15:24;;;;;;;17.10;2.77;;;6.50;80.20;;;;;;5092561;28;20035;-74
2021/01/21 08:17:50;;;;;;;11.70;1.97;;;6.60;79.70;;;;;;5086195;28;20364;-74
2021/01/21 08:20:25;;;;;;;15.23;2.53;;;6.60;79.70;;;;;;5108959;28;20035;-73
2021/01/21 08:23:01;;;;;;;11.40;2.20;;;6.50;79.60;;;;;;5097433;28;20024;-74
2021/01/21 08:25:29;;;;;;;16.70;2.23;;;6.60;79.30;;;;;;5087099;28;20028;-74
2021/01/21 08:27:54;;;;;;;11.33;2.03;;;6.60;79.30;;;;;;5107920;28;20365;-74
2021/01/21 08:30:27;;;;;;;11.97;1.97;;;6.60;79.10;;;;;;5109795;28;20023;-75
2021/01/21 08:32:57;;;;;;;10.90;1.70;;;6.50;79.10;;;;;;5109474;28;20028;-75
2021/01/21 08:35:25;;;;;;;18.93;2.37;;;6.60;79.30;;;;;;5108912;28;20483;-74
2021/01/21 08:37:51;;;;;;;11.53;2.27;;;6.60;79.50;;;;;;5108875;28;20028;-75
2021/01/21 08:40:17;;;;;;;12.33;2.03;;;6.60;79.40;;;;;;5108972;28;20047;-75
2021/01/21 08:42:45;;;;;;;9.97;1.97;;;6.50;79.40;;;;;;5091666;28;20020;-75
2021/01/21 08:45:10;;;;;;;11.60;2.30;;;6.60;79.70;;;;;;5109083;28;20024;-75
2021/01/21 08:47:49;;;;;;;17.80;2.27;;;6.60;79.40;;;;;;5109712;28;20107;-75
2021/01/21 08:50:16;;;;;;;13.07;1.90;;;6.60;79.30;;;;;;5108912;28;20035;-74
2021/01/21 08:53:03;;;;;;;13.37;2.00;;;6.60;79.70;;;;;;5108868;28;20020;-75
2021/01/21 08:55:43;;;;;;;12.20;2.00;;;6.70;79.30;;;;;;5109240;28;20035;-74
2021/01/21 08:58:10;;;;;;;12.87;2.57;;;6.70;79.40;;;;;;5109843;28;20088;-74
2021/01/21 09:00:36;;;;;;;15.23;2.23;;;6.70;79.20;;;;;;5099082;28;20028;-74
2021/01/21 09:03:01;;;;;;;18.90;2.27;;;6.70;79.10;;;;;;5096212;28;20111;-75
2021/01/21 09:05:30;;;;;;;10.03;1.63;;;6.80;79.00;;;;;;5096084;28;20545;-74
2021/01/21 09:08:04;;;;;;;11.27;1.93;;;6.80;78.50;;;;;;5095850;28;20028;-74
2021/01/21 09:10:37;;;;;;;15.07;2.17;;;6.80;78.70;;;;;;5094780;28;20024;-77
2021/01/21 09:13:03;;;;;;;9.57;2.00;;;6.80;78.60;;;;;;5096018;28;20495;-75
2021/01/21 09:15:28;;;;;;;11.07;1.83;;;6.90;78.60;;;;;;5094331;28;20032;-74
2021/01/21 09:18:25;;;;;;;11.50;1.90;;;6.90;78.00;;;;;;5077917;28;20032;-75
2021/01/21 09:20:50;;;;;;;11.47;1.70;;;7.00;77.80;;;;;;5094793;28;20527;-74
2021/01/21 09:23:20;;;;;;;12.50;2.37;;;7.00;77.80;;;;;;5094456;28;20020;-74
2021/01/21 09:25:46;;;;;;;10.83;1.90;;;7.10;77.90;;;;;;5094544;28;20032;-75
2021/01/21 09:28:13;;;;;;;9.47;2.33;;;7.20;77.40;;;;;;5095375;28;20032;-74
2021/01/21 09:30:39;;;;;;;11.40;2.37;;;7.20;77.20;;;;;;5094273;28;20047;-75
2021/01/21 09:33:04;;;;;;;9.83;2.37;;;7.20;77.20;;;;;;5094406;28;20028;-75
2021/01/21 09:35:30;;;;;;;13.80;2.53;;;7.20;77.60;;;;;;5094385;28;20030;-75
2021/01/21 09:37:57;;;;;;;10.80;1.87;;;7.20;77.40;;;;;;5094899;28;20054;-75
2021/01/21 09:40:27;;;;;;;12.40;2.60;;;7.20;77.40;;;;;;5093852;28;20039;-76
2021/01/21 09:42:55;;;;;;;12.13;2.00;;;7.20;77.60;;;;;;5093742;28;20024;-76
2021/01/21 09:45:20;;;;;;;10.40;2.13;;;7.30;77.50;;;;;;5076756;28;20426;-77
2021/01/21 09:47:46;;;;;;;16.93;1.87;;;7.20;77.10;;;;;;5077189;28;20056;-75
2021/01/21 09:50:12;;;;;;;10.87;2.60;;;7.30;77.80;;;;;;5095299;28;20076;-75
2021/01/21 09:52:38;;;;;;;11.33;1.70;;;7.30;77.60;;;;;;5095252;28;20028;-76
2021/01/21 09:55:04;;;;;;;8.93;2.03;;;7.40;77.70;;;;;;5076250;28;20038;-75
2021/01/21 09:57:30;;;;;;;16.53;2.60;;;7.40;77.50;;;;;;5067653;28;20420;-76
2021/01/21 09:59:55;;;;;;;8.33;1.30;;;7.30;77.30;;;;;;5086689;28;20024;-75
2021/01/21 10:02:24;;;;;;;11.20;1.77;;;7.40;77.30;;;;;;5092862;28;20099;-76
2021/01/21 10:04:50;;;;;;;7.37;1.63;;;7.40;77.30;;;;;;5059722;28;20762;-76
2021/01/21 10:07:15;;;;;;;10.37;1.97;;;7.40;77.30;;;;;;5094687;28;20028;-75
2021/01/21 10:09:41;;;;;;;7.27;1.63;;;7.40;77.70;;;;;;5092253;28;20043;-77
2021/01/21 10:12:07;;;;;;;13.10;1.80;;;7.40;77.50;;;;;;5092191;28;20477;-77
2021/01/21 10:14:33;;;;;;;10.43;1.53;;;7.50;77.20;;;;;;5085325;28;20024;-77
2021/01/21 10:16:59;;;;;;;8.47;1.77;;;7.50;77.20;;;;;;5092672;28;20017;-77
2021/01/21 10:19:25;;;;;;;6.67;1.30;;;7.40;77.50;;;;;;5092803;28;20538;-76
2021/01/21 10:21:51;;;;;;;13.70;2.27;;;7.50;77.20;;;;;;5094365;28;20020;-76
2021/01/21 10:24:16;;;;;;;10.60;2.23;;;7.50;77.30;;;;;;5092925;28;20421;-80
2021/01/21 10:26:42;;;;;;;12.40;1.90;;;7.60;76.90;;;;;;5093596;28;20028;-77
2021/01/21 10:29:07;;;;;;;15.43;2.60;;;7.60;77.30;;;;;;5094191;28;20388;-76
2021/01/21 10:31:33;;;;;;;10.93;1.83;;;7.60;77.20;;;;;;5094217;28;20057;-76
2021/01/21 10:33:59;;;;;;;16.40;2.60;;;7.60;76.80;;;;;;5094110;28;20024;-76
2021/01/21 10:36:24;;;;;;;10.93;1.87;;;7.60;77.40;;;;;;5094531;28;20039;-77
2021/01/21 10:38:50;;;;;;;15.23;2.27;;;7.60;76.90;;;;;;5093988;28;20035;-77
2021/01/21 10:41:16;;;;;;;13.13;2.43;;;7.70;76.70;;;;;;5094237;28;20076;-76
2021/01/21 10:43:41;;;;;;;13.20;1.90;;;7.70;76.30;;;;;;5093018;28;20354;-76
2021/01/21 10:46:07;;;;;;;10.07;2.20;;;7.90;76.20;;;;;;5092611;28;20031;-77
2021/01/21 10:48:32;;;;;;;10.60;2.20;;;7.90;75.70;;;;;;5092529;28;20054;-76
2021/01/21 10:50:58;;;;;;;10.47;2.17;;;7.90;75.60;;;;;;5075772;28;20039;-77
2021/01/21 10:53:24;;;;;;;7.17;1.83;;;7.90;75.90;;;;;;5093805;28;20409;-74
2021/01/21 10:55:49;;;;;;;7.30;1.10;;;8.00;75.50;;;;;;5087428;28;20032;-76
2021/01/21 10:58:15;;;;;;;16.47;2.70;;;8.00;74.70;;;;;;5075273;28;20043;-75
2021/01/21 11:00:41;;;;;;;10.65;1.92;;;8.10;75.60;;;;;;5075218;28;20024;-76
2021/01/21 11:03:07;;;;;;;11.18;2.33;;;8.20;74.70;;;;;;5092662;28;20419;-75
2021/01/21 11:05:33;;;;;;;10.13;1.80;;;8.20;73.60;;;;;;5092521;28;20016;-75
2021/01/21 11:07:58;;;;;;;11.57;2.08;;;8.30;73.60;;;;;;5093417;28;20028;-75
2021/01/21 11:10:24;;;;;;;11.73;1.63;;;8.30;74.10;;;;;;5092553;28;20035;-76
2021/01/21 11:12:49;;;;;;;15.27;2.38;;;8.40;73.80;;;;;;5091973;28;20032;-75
2021/01/21 11:15:18;;;;;;;8.80;1.70;;;8.50;73.70;;;;;;5091888;28;20153;-76
2021/01/21 11:17:45;;;;;;;7.35;1.52;;;8.40;73.30;;;;;;5092234;28;20024;-75
2021/01/21 11:20:12;;;;;;;12.60;2.42;;;8.30;73.50;;;;;;5093339;28;20043;-75
2021/01/21 11:22:38;;;;;;;9.10;1.98;;;8.20;73.80;;;;;;5091882;28;20035;-76
2021/01/21 11:25:06;;;;;;;10.73;3.17;;;8.30;74.00;;;;;;5090290;28;20114;-76
2021/01/21 11:27:32;;;;;;;8.55;2.10;;;8.30;73.80;;;;;;5091828;28;20024;-75
2021/01/21 11:29:57;;;;;;;7.45;1.88;;;8.30;73.60;;;;;;5091257;28;20100;-78
2021/01/21 11:32:23;;;;;;;8.20;1.45;;;8.20;73.60;;;;;;5081353;28;20497;-77
2021/01/21 11:34:48;;;;;;;13.70;1.73;;;8.10;74.00;;;;;;5082235;28;20028;-77
2021/01/21 11:37:14;;;;;;;9.25;1.80;;;8.10;74.60;;;;;;5091352;28;20032;-77
2021/01/21 11:39:40;;;;;;;11.18;1.88;;;8.20;74.40;;;;;;5093208;28;20057;-74
2021/01/21 11:42:05;;;;;;;8.05;1.85;;;8.20;74.40;;;;;;5092063;28;20029;-75
2021/01/21 11:44:31;;;;;;;10.63;1.90;;;8.30;74.00;;;;;;5092054;28;20024;-75
2021/01/21 11:46:56;;;;;;;7.55;1.45;;;8.30;74.40;;;;;;5093154;28;20447;-75
2021/01/21 11:49:22;;;;;;;10.13;1.70;;;8.30;73.60;;;;;;5092661;28;20040;-76
2021/01/21 11:51:47;;;;;;;10.02;1.27;;;8.20;74.00;;;;;;5092959;28;20028;-77
2021/01/21 11:54:13;;;;;;;6.95;1.80;;;8.30;74.30;;;;;;5093082;28;20024;-76
2021/01/21 11:56:39;;;;;;;10.52;1.70;;;8.20;74.30;;;;;;5082387;28;20897;-76
2021/01/21 11:59:04;;;;;;;12.15;1.58;;;8.20;74.10;;;;;;5092062;28;20078;-76
2021/01/21 12:01:30;;;;;;;9.07;1.63;;;8.20;74.20;;;;;;5092741;28;20032;-77
2021/01/21 12:03:55;;;;;;;10.50;1.75;;;8.20;74.40;;;;;;5092522;28;20040;-77
2021/01/21 12:06:21;;;;;;;12.32;1.58;;;8.20;74.00;;;;;;5091718;28;20028;-76
2021/01/21 12:08:46;;;;;;;6.60;1.50;;;8.20;74.30;;;;;;5092480;28;20040;-77
2021/01/21 12:11:12;;;;;;;10.93;1.80;;;8.30;74.00;;;;;;5092786;28;20469;-76
2021/01/21 12:13:38;;;;;;;11.35;1.95;;;8.30;74.60;;;;;;5091997;28;20036;-77
2021/01/21 12:16:04;;;;;;;12.55;2.55;;;8.30;73.60;;;;;;5091968;28;20032;-77
2021/01/21 12:18:29;;;;;;;14.45;2.05;;;8.40;73.70;;;;;;5091674;28;20111;-76
2021/01/21 12:20:55;;;;;;;14.50;1.55;;;8.30;73.30;;;;;;5092694;28;20221;-76
2021/01/21 12:23:20;;;;;;;6.80;1.58;;;8.30;73.70;;;;;;5085996;28;20036;-77
2021/01/21 12:25:46;;;;;;;10.45;2.45;;;8.30;73.40;;;;;;5082107;28;20050;-75
2021/01/21 12:28:12;;;;;;;13.02;1.88;;;8.30;74.00;;;;;;5078737;28;20111;-76
2021/01/21 12:30:38;;;;;;;11.45;1.88;;;8.40;73.70;;;;;;5088060;28;20116;-76
2021/01/21 12:33:04;;;;;;;14.60;1.90;;;8.40;73.00;;;;;;5090501;28;20032;-75
2021/01/21 12:35:29;;;;;;;10.45;1.88;;;8.50;73.50;;;;;;5094141;28;20028;-75
2021/01/21 12:37:55;;;;;;;12.57;2.33;;;8.60;72.70;;;;;;5095022;28;20028;-76
2021/01/21 12:40:20;;;;;;;10.23;1.88;;;8.60;72.00;;;;;;5096465;28;20039;-75
2021/01/21 12:42:46;;;;;;;11.50;1.90;;;8.60;71.80;;;;;;5094845;28;20056;-75
2021/01/21 12:45:12;;;;;;;8.23;1.58;;;8.60;72.00;;;;;;5096315;28;20028;-75
2021/01/21 12:47:38;;;;;;;7.70;1.42;;;8.60;71.70;;;;;;5094626;28;20020;-75
2021/01/21 12:50:05;;;;;;;8.20;1.73;;;8.70;71.20;;;;;;5094984;28;20061;-75
2021/01/21 12:52:30;;;;;;;9.75;1.73;;;8.70;70.60;;;;;;5096231;28;20476;-76
2021/01/21 12:54:57;;;;;;;8.52;2.17;;;8.70;71.20;;;;;;5088571;28;20124;-77
2021/01/21 12:57:23;;;;;;;7.85;1.27;;;8.70;71.50;;;;;;5088518;28;20831;-75
2021/01/21 12:59:49;;;;;;;7.30;1.55;;;8.90;71.00;;;;;;5095570;28;20070;-76
2021/01/21 13:02:14;;;;;;;8.43;1.73;;;8.90;70.50;;;;;;5095039;28;20121;-76
2021/01/21 13:04:44;;;;;;;8.60;2.30;;;8.90;69.60;;;;;;5095359;28;20039;-77
2021/01/21 13:07:10;;;;;;;11.27;1.88;;;8.80;70.70;;;;;;5077668;28;20437;-76
2021/01/21 13:09:35;;;;;;;9.75;1.80;;;8.80;70.50;;;;;;5095951;28;20065;-76
2021/01/21 13:12:01;;;;;;;8.93;2.38;;;8.70;70.70;;;;;;5076844;28;20032;-76
2021/01/21 13:14:26;;;;;;;12.20;1.83;;;8.70;71.20;;;;;;5095766;28;20409;-77
2021/01/21 13:16:52;;;;;;;14.23;1.95;;;8.60;71.70;;;;;;5087132;28;20054;-75
2021/01/21 13:19:18;;;;;;;12.75;1.70;;;8.60;72.00;;;;;;5085166;28;20044;-80
2021/01/21 13:21:43;;;;;;;9.18;1.92;;;8.70;72.00;;;;;;5084022;28;20032;-76
2021/01/21 13:24:09;;;;;;;8.70;1.80;;;8.70;71.40;;;;;;5081057;28;20521;-77
2021/01/21 13:26:35;;;;;;;10.07;2.17;;;8.90;71.20;;;;;;5076547;28;20055;-75
2021/01/21 13:29:01;;;;;;;5.40;1.45;;;9.00;70.50;;;;;;5086737;28;20467;-75
2021/01/21 13:31:26;;;;;;;11.23;2.28;;;9.00;70.30;;;;;;5092852;28;20107;-75
2021/01/21 13:33:52;;;;;;;5.97;1.92;;;9.00;70.80;;;;;;5093640;28;20465;-75
2021/01/21 13:36:17;;;;;;;10.50;2.13;;;9.10;69.40;;;;;;5095347;28;20047;-75
2021/01/21 13:38:43;;;;;;;3.83;1.10;;;9.10;70.70;;;;;;5093435;28;20028;-76
2021/01/21 13:41:09;;;;;;;8.98;2.10;;;9.10;69.90;;;;;;5093350;28;20025;-74
2021/01/21 13:43:34;;;;;;;10.45;1.58;;;8.90;70.00;;;;;;5094942;28;20072;-75